Windsor Park, Pennsylvania
Current Conditions -  °F | °C
As of 6:53 PM on Tuesday 25 Nov 2014 (Local Time) from KTHV Reporting Station
Clear Clear  
Wind Chill: 35°   Ceiling: Unl
Heat Index: 35°   Visibility: 10mi
Dew Point: 29°   Wind: 0mph
Humidity: 78%   Direction: NA
Pressure: 30.09"   Gusts: NA
Location:  39.9503°N, 76.7105°W
Report Text: KTHV 252353Z AUTO 00000KT 10SM CLR 02/M02 A3009 RMK AO2 SLP196 T00171017 10128 20011 53020
Loading
Personal Weather Stations






























Interactive Weather Map New forecast layout! Learn more

10-Day Weather Forecast

Advertisements
Track Severe Weather on mobile